Time;durP1;ratioP1;P1;durP2;ratioP2;P2;SDS_P1;SDS_P2;PMS_P1;PMS_P2;Temp;Humidity;BMP_temperature;BMP_pressure;BME280_temperature;BME280_humidity;BME280_pressure;Samples;Min_cycle;Max_cycle;Signal;HPM_P1;HPM_P2
2022/11/05 00:10:18;;;;;;;16.73;7.87;;;;;;;;;;5058928;28;20572;-79
2022/11/05 00:18:15;;;;;;;19.63;8.80;;;;;;;;;;5063293;28;20199;-80
2022/11/05 00:20:42;;;;;;;15.57;7.53;;;;;;;;;;5053904;28;20227;-79
2022/11/05 00:25:56;;;;;;;15.93;8.27;;;;;;;;;;5056296;28;20241;-79
2022/11/05 00:28:23;;;;;;;15.10;8.03;;;;;;;;;;5074885;28;20723;-79
2022/11/05 00:30:50;;;;;;;12.60;7.83;;;;;;;;;;5060679;28;20268;-79
2022/11/05 00:33:18;;;;;;;15.53;7.67;;;;;;;;;;5068517;28;20341;-79
2022/11/05 00:35:45;;;;;;;14.17;7.93;;;;;;;;;;5057038;28;20234;-80
2022/11/05 00:38:14;;;;;;;16.27;8.37;;;;;;;;;;5070657;28;20749;-78
2022/11/05 00:40:41;;;;;;;15.83;7.67;;;;;;;;;;5064190;28;20265;-80
2022/11/05 00:45:53;;;;;;;15.53;8.20;;;;;;;;;;5073556;28;20203;-79
2022/11/05 00:51:04;;;;;;;19.90;8.20;;;;;;;;;;5008271;28;20198;-79
2022/11/05 00:53:33;;;;;;;17.03;9.13;;;;;;;;;;4995449;28;20253;-80
2022/11/05 00:56:01;;;;;;;17.23;8.87;;;;;;;;;;5006508;28;20700;-81
2022/11/05 00:58:29;;;;;;;19.50;9.30;;;;;;;;;;5004765;28;20232;-81
2022/11/05 01:00:57;;;;;;;17.93;8.93;;;;;;;;;;5013886;28;20291;-81
2022/11/05 01:03:26;;;;;;;17.03;9.03;;;;;;;;;;5014491;28;20228;-80
2022/11/05 01:05:55;;;;;;;17.87;8.87;;;;;;;;;;5004670;28;20336;-80
2022/11/05 01:08:24;;;;;;;17.77;9.47;;;;;;;;;;5019967;28;20699;-80
2022/11/05 01:10:53;;;;;;;22.53;8.83;;;;;;;;;;5021246;28;20239;-80
2022/11/05 01:13:21;;;;;;;17.00;8.60;;;;;;;;;;5001452;28;20308;-80
2022/11/05 01:15:50;;;;;;;16.53;7.70;;;;;;;;;;4991459;28;20259;-78
2022/11/05 01:18:17;;;;;;;14.17;7.53;;;;;;;;;;5001203;28;20236;-81
2022/11/05 01:20:45;;;;;;;14.57;7.10;;;;;;;;;;5010422;28;20285;-80
2022/11/05 01:23:12;;;;;;;14.57;7.20;;;;;;;;;;5004174;28;20228;-79
2022/11/05 01:25:39;;;;;;;12.70;6.83;;;;;;;;;;5016272;28;20283;-79
2022/11/05 01:28:17;;;;;;;10.23;6.90;;;;;;;;;;5028871;28;20239;-80
2022/11/05 01:30:44;;;;;;;14.40;7.47;;;;;;;;;;5060407;28;20234;-81
2022/11/05 01:33:11;;;;;;;13.30;7.70;;;;;;;;;;5063446;28;20250;-81
2022/11/05 01:35:39;;;;;;;17.33;7.63;;;;;;;;;;5068925;28;20618;-80
2022/11/05 01:38:06;;;;;;;13.77;7.27;;;;;;;;;;5071220;28;20223;-80
2022/11/05 01:40:34;;;;;;;12.90;7.53;;;;;;;;;;5075447;28;20277;-80
2022/11/05 01:43:01;;;;;;;14.40;7.83;;;;;;;;;;5066440;28;20599;-80
2022/11/05 01:45:30;;;;;;;15.93;8.13;;;;;;;;;;5061849;28;20331;-80
2022/11/05 01:48:03;;;;;;;12.40;7.70;;;;;;;;;;5075876;28;20320;-80
2022/11/05 01:50:48;;;;;;;13.20;7.50;;;;;;;;;;5061332;28;20192;-80
2022/11/05 01:53:19;;;;;;;9.77;7.27;;;;;;;;;;5072514;28;20262;-81
2022/11/05 01:55:51;;;;;;;11.97;7.07;;;;;;;;;;5055986;28;20337;-81
2022/11/05 01:58:21;;;;;;;16.37;7.63;;;;;;;;;;5063638;28;20332;-81
2022/11/05 02:00:50;;;;;;;14.27;6.93;;;;;;;;;;5056847;28;20226;-80
2022/11/05 02:03:20;;;;;;;17.83;7.90;;;;;;;;;;5063236;28;20246;-81
2022/11/05 02:05:52;;;;;;;15.30;6.80;;;;;;;;;;5071797;28;20757;-81
2022/11/05 02:08:21;;;;;;;16.17;6.87;;;;;;;;;;5052135;28;20243;-80
2022/11/05 02:10:49;;;;;;;16.33;6.23;;;;;;;;;;5056232;28;20234;-80
2022/11/05 02:13:16;;;;;;;15.20;6.40;;;;;;;;;;5071352;28;20302;-80
2022/11/05 02:15:48;;;;;;;15.90;6.67;;;;;;;;;;5071113;28;20222;-81
2022/11/05 02:18:21;;;;;;;13.37;6.67;;;;;;;;;;5069843;28;20250;-81
2022/11/05 02:21:00;;;;;;;14.30;6.83;;;;;;;;;;5088879;28;20207;-81
2022/11/05 02:23:45;;;;;;;10.70;6.83;;;;;;;;;;5068039;28;20231;-81
2022/11/05 02:26:33;;;;;;;11.40;6.73;;;;;;;;;;5101170;28;20230;-81
2022/11/05 02:29:19;;;;;;;12.87;7.40;;;;;;;;;;5058033;28;20293;-81
2022/11/05 02:31:51;;;;;;;12.27;7.33;;;;;;;;;;5070689;28;20226;-80
2022/11/05 02:34:22;;;;;;;12.13;6.93;;;;;;;;;;5068297;28;20624;-80
2022/11/05 02:36:51;;;;;;;11.60;7.37;;;;;;;;;;5063766;28;20234;-79
2022/11/05 02:39:27;;;;;;;14.20;7.90;;;;;;;;;;5083191;28;20229;-78
2022/11/05 02:42:00;;;;;;;15.87;7.40;;;;;;;;;;5091722;28;20194;-80
2022/11/05 02:44:31;;;;;;;13.43;7.50;;;;;;;;;;5081038;28;20261;-81
2022/11/05 02:47:06;;;;;;;13.33;7.87;;;;;;;;;;5075470;28;20229;-81
2022/11/05 02:49:40;;;;;;;12.17;7.60;;;;;;;;;;5077727;28;20226;-80
2022/11/05 02:52:09;;;;;;;14.20;7.20;;;;;;;;;;5071697;28;20314;-81
2022/11/05 02:54:37;;;;;;;13.70;7.20;;;;;;;;;;5073886;28;20324;-80
2022/11/05 02:57:05;;;;;;;15.80;7.40;;;;;;;;;;5058081;28;20200;-80
2022/11/05 02:59:32;;;;;;;14.50;7.63;;;;;;;;;;5064585;28;20286;-81
2022/11/05 03:02:02;;;;;;;12.83;7.50;;;;;;;;;;5066940;28;20231;-81
2022/11/05 03:04:31;;;;;;;13.87;7.63;;;;;;;;;;5061814;28;20282;-81
2022/11/05 03:07:05;;;;;;;13.40;7.53;;;;;;;;;;5068694;28;20225;-81
2022/11/05 03:09:53;;;;;;;14.53;8.20;;;;;;;;;;5061797;28;20686;-81
2022/11/05 03:12:31;;;;;;;12.57;7.40;;;;;;;;;;5057260;28;20702;-80
2022/11/05 03:15:04;;;;;;;14.40;6.90;;;;;;;;;;5074497;28;20309;-81
2022/11/05 03:17:38;;;;;;;12.53;6.93;;;;;;;;;;5075317;28;20281;-80
2022/11/05 03:20:12;;;;;;;15.10;7.63;;;;;;;;;;5073157;28;20222;-81
2022/11/05 03:22:43;;;;;;;15.33;7.77;;;;;;;;;;5055413;28;20234;-80
2022/11/05 03:25:13;;;;;;;14.43;7.07;;;;;;;;;;5074480;28;20220;-81
2022/11/05 03:27:43;;;;;;;12.77;6.80;;;;;;;;;;5074435;28;20611;-81
2022/11/05 03:30:12;;;;;;;12.37;7.63;;;;;;;;;;5060234;28;20717;-81
2022/11/05 03:32:42;;;;;;;9.87;7.20;;;;;;;;;;5067411;28;20721;-81
2022/11/05 03:35:11;;;;;;;12.97;7.30;;;;;;;;;;5081232;28;20277;-81
2022/11/05 03:37:41;;;;;;;13.93;7.17;;;;;;;;;;5056168;28;20282;-81
2022/11/05 03:40:10;;;;;;;11.53;7.43;;;;;;;;;;5067755;28;20257;-80
2022/11/05 03:42:39;;;;;;;15.80;7.10;;;;;;;;;;5077746;28;20626;-80
2022/11/05 03:45:09;;;;;;;11.43;6.93;;;;;;;;;;5069620;28;20279;-81
2022/11/05 03:47:38;;;;;;;12.13;6.57;;;;;;;;;;5071013;28;20243;-80
2022/11/05 03:50:08;;;;;;;10.90;6.60;;;;;;;;;;5055800;28;20233;-80
2022/11/05 03:52:38;;;;;;;11.23;7.20;;;;;;;;;;5056615;28;20305;-80
2022/11/05 03:55:06;;;;;;;10.53;6.70;;;;;;;;;;5076815;28;20285;-80
2022/11/05 03:57:35;;;;;;;13.80;6.70;;;;;;;;;;5087953;28;20351;-81
2022/11/05 04:00:02;;;;;;;11.67;6.77;;;;;;;;;;5061166;28;20283;-79
2022/11/05 04:02:30;;;;;;;13.10;6.90;;;;;;;;;;5063928;28;20683;-80
2022/11/05 04:04:57;;;;;;;11.40;7.07;;;;;;;;;;5055617;28;20199;-80
2022/11/05 04:18:22;;;;;;;11.27;5.53;;;;;;;;;;5029726;28;20211;-80
2022/11/05 04:26:22;;;;;;;13.97;5.93;;;;;;;;;;4972592;28;20278;-80
2022/11/05 04:31:34;;;;;;;11.47;5.30;;;;;;;;;;4972399;28;20288;-80
2022/11/05 04:34:01;;;;;;;11.93;5.37;;;;;;;;;;4971493;28;20305;-80
2022/11/05 04:36:28;;;;;;;10.73;5.30;;;;;;;;;;4971984;28;20294;-80
2022/11/05 04:38:57;;;;;;;10.50;5.37;;;;;;;;;;4972099;28;20206;-80
2022/11/05 04:41:24;;;;;;;11.53;5.07;;;;;;;;;;4971211;28;20796;-80
2022/11/05 04:43:52;;;;;;;10.67;5.23;;;;;;;;;;4971713;28;20203;-80
2022/11/05 04:46:19;;;;;;;11.70;4.40;;;;;;;;;;4971754;28;20701;-80
2022/11/05 04:48:46;;;;;;;15.30;4.80;;;;;;;;;;4972238;28;20282;-80
2022/11/05 04:51:13;;;;;;;9.27;4.70;;;;;;;;;;5022002;28;20286;-80
2022/11/05 04:53:40;;;;;;;9.40;4.70;;;;;;;;;;5031015;28;20260;-79
2022/11/05 04:56:13;;;;;;;12.27;4.80;;;;;;;;;;5024633;28;20604;-80
2022/11/05 04:58:40;;;;;;;11.50;5.07;;;;;;;;;;5025212;28;20275;-80
2022/11/05 05:01:11;;;;;;;13.07;4.73;;;;;;;;;;5055557;28;20278;-80
2022/11/05 05:03:39;;;;;;;11.70;5.10;;;;;;;;;;5081427;28;20226;-80
2022/11/05 05:06:06;;;;;;;11.73;5.03;;;;;;;;;;5053643;28;20250;-80
2022/11/05 05:08:33;;;;;;;12.37;5.07;;;;;;;;;;5073501;28;20711;-80
2022/11/05 05:11:01;;;;;;;9.87;4.57;;;;;;;;;;5055014;28;20269;-80
2022/11/05 05:13:30;;;;;;;10.13;5.07;;;;;;;;;;5066213;28;20304;-80
2022/11/05 05:15:57;;;;;;;15.93;5.47;;;;;;;;;;5060549;28;20225;-80
2022/11/05 05:18:27;;;;;;;10.93;4.87;;;;;;;;;;5069082;28;20226;-80
2022/11/05 05:23:44;;;;;;;10.70;4.90;;;;;;;;;;5059879;28;20680;-80
2022/11/05 05:26:11;;;;;;;8.40;4.67;;;;;;;;;;5068210;28;20297;-80
2022/11/05 05:28:40;;;;;;;10.90;4.57;;;;;;;;;;5069919;28;20311;-80
2022/11/05 05:31:08;;;;;;;8.50;5.10;;;;;;;;;;5067710;28;20392;-80
2022/11/05 05:33:35;;;;;;;10.33;5.33;;;;;;;;;;5059623;28;20227;-80
2022/11/05 05:36:02;;;;;;;14.20;5.30;;;;;;;;;;5068194;28;20243;-80
2022/11/05 05:38:30;;;;;;;14.83;5.43;;;;;;;;;;5059615;28;20240;-80
2022/11/05 05:40:58;;;;;;;7.93;4.93;;;;;;;;;;5065286;28;20267;-80
2022/11/05 05:43:29;;;;;;;7.93;4.60;;;;;;;;;;5060817;28;20663;-81
2022/11/05 05:45:57;;;;;;;10.77;5.27;;;;;;;;;;5063516;28;20199;-80
2022/11/05 05:48:24;;;;;;;11.13;5.37;;;;;;;;;;5068291;28;20201;-79
2022/11/05 05:50:52;;;;;;;10.33;4.67;;;;;;;;;;5063968;28;20288;-79
2022/11/05 05:53:19;;;;;;;10.57;5.50;;;;;;;;;;5063707;28;20254;-79
2022/11/05 05:55:46;;;;;;;10.97;5.40;;;;;;;;;;5066053;28;20250;-79
2022/11/05 05:58:13;;;;;;;10.53;5.53;;;;;;;;;;5062697;28;20282;-79
2022/11/05 06:00:41;;;;;;;11.23;5.27;;;;;;;;;;5060616;28;20659;-79
2022/11/05 06:03:10;;;;;;;13.40;5.73;;;;;;;;;;5070882;28;20222;-79
2022/11/05 06:05:37;;;;;;;11.03;5.63;;;;;;;;;;5060326;28;20689;-79
2022/11/05 06:08:04;;;;;;;13.80;5.50;;;;;;;;;;5053776;28;20291;-79
2022/11/05 06:10:31;;;;;;;10.13;4.97;;;;;;;;;;5059635;28;20237;-78
2022/11/05 06:13:02;;;;;;;10.97;4.70;;;;;;;;;;5070191;28;20284;-79
2022/11/05 06:15:29;;;;;;;8.47;4.83;;;;;;;;;;5077709;28;20286;-80
2022/11/05 06:17:57;;;;;;;10.77;5.07;;;;;;;;;;5071522;28;20284;-79
2022/11/05 06:20:25;;;;;;;12.13;5.13;;;;;;;;;;5070391;28;20278;-79
2022/11/05 06:22:55;;;;;;;11.87;4.60;;;;;;;;;;5066415;28;20626;-79
2022/11/05 06:25:23;;;;;;;11.20;4.63;;;;;;;;;;5052044;28;20290;-79
2022/11/05 06:27:50;;;;;;;11.77;5.00;;;;;;;;;;5075273;28;20237;-79
2022/11/05 06:30:17;;;;;;;10.43;4.77;;;;;;;;;;5058377;28;20304;-79
2022/11/05 06:32:44;;;;;;;9.93;5.40;;;;;;;;;;5072871;28;20209;-80
2022/11/05 06:35:12;;;;;;;10.40;5.17;;;;;;;;;;5071910;28;20252;-79
2022/11/05 06:37:41;;;;;;;10.90;4.63;;;;;;;;;;5078886;28;20331;-87
2022/11/05 06:40:08;;;;;;;13.07;4.63;;;;;;;;;;5071894;28;20226;-79
2022/11/05 06:42:36;;;;;;;12.60;5.30;;;;;;;;;;5063076;28;20237;-80
2022/11/05 06:45:03;;;;;;;9.80;4.60;;;;;;;;;;5073302;28;20216;-78
2022/11/05 06:47:31;;;;;;;9.30;4.70;;;;;;;;;;5067881;28;20289;-79
2022/11/05 06:49:58;;;;;;;6.67;4.33;;;;;;;;;;5058269;28;20260;-79
2022/11/05 06:52:26;;;;;;;12.73;4.87;;;;;;;;;;5068443;28;20230;-79
2022/11/05 06:54:54;;;;;;;12.00;4.83;;;;;;;;;;5075528;28;20228;-80
2022/11/05 06:57:21;;;;;;;10.93;5.07;;;;;;;;;;5067806;28;20264;-80
2022/11/05 06:59:49;;;;;;;11.37;4.73;;;;;;;;;;5087722;28;20199;-80
2022/11/05 07:02:17;;;;;;;8.63;4.40;;;;;;;;;;5074550;28;20242;-80
2022/11/05 07:04:44;;;;;;;10.50;4.10;;;;;;;;;;5068337;28;20197;-83
2022/11/05 07:07:11;;;;;;;10.60;4.00;;;;;;;;;;5077306;28;20222;-86
2022/11/05 07:09:41;;;;;;;8.17;3.80;;;;;;;;;;5063987;28;20265;-80
2022/11/05 07:12:10;;;;;;;6.97;4.00;;;;;;;;;;5072763;28;20203;-81
2022/11/05 07:14:37;;;;;;;9.40;3.77;;;;;;;;;;5065565;28;20655;-81
2022/11/05 07:17:04;;;;;;;10.77;4.13;;;;;;;;;;5064376;28;20666;-81
2022/11/05 07:19:32;;;;;;;11.10;4.37;;;;;;;;;;5055289;28;20204;-81
2022/11/05 07:21:59;;;;;;;9.13;3.50;;;;;;;;;;5072844;28;20299;-81
2022/11/05 07:24:26;;;;;;;9.03;4.07;;;;;;;;;;5075483;28;20193;-82
2022/11/05 07:26:53;;;;;;;10.77;3.73;;;;;;;;;;5077506;28;20253;-81
2022/11/05 07:29:22;;;;;;;9.83;3.90;;;;;;;;;;5065408;28;20252;-82
2022/11/05 07:31:49;;;;;;;8.77;3.83;;;;;;;;;;5074403;28;20234;-81
2022/11/05 07:34:17;;;;;;;10.20;3.80;;;;;;;;;;5066299;28;20249;-82
2022/11/05 07:36:44;;;;;;;8.57;4.10;;;;;;;;;;5063568;28;20625;-80
2022/11/05 07:39:11;;;;;;;7.90;3.83;;;;;;;;;;5065252;28;20202;-87
2022/11/05 07:41:38;;;;;;;11.27;4.77;;;;;;;;;;5055900;28;20330;-88
2022/11/05 07:44:06;;;;;;;11.83;4.63;;;;;;;;;;5074358;28;20248;-87
2022/11/05 07:46:35;;;;;;;10.60;4.83;;;;;;;;;;5064673;28;20226;-88
2022/11/05 07:49:03;;;;;;;9.00;4.20;;;;;;;;;;5063132;28;20231;-88
2022/11/05 07:51:30;;;;;;;10.80;4.40;;;;;;;;;;5074281;28;20328;-81
2022/11/05 07:53:57;;;;;;;7.90;4.03;;;;;;;;;;5084317;28;20309;-89
2022/11/05 07:56:24;;;;;;;10.03;4.23;;;;;;;;;;5081243;28;20203;-89
2022/11/05 07:58:52;;;;;;;9.27;4.50;;;;;;;;;;5075082;28;20666;-89
2022/11/05 08:01:19;;;;;;;7.87;4.00;;;;;;;;;;5075268;28;20198;-89
2022/11/05 08:03:48;;;;;;;8.63;3.83;;;;;;;;;;5074510;28;20203;-89
2022/11/05 08:06:15;;;;;;;10.47;4.00;;;;;;;;;;5064675;28;20242;-89
2022/11/05 08:08:42;;;;;;;8.10;4.10;;;;;;;;;;5055058;28;20790;-89
2022/11/05 08:11:10;;;;;;;8.87;4.10;;;;;;;;;;5054423;28;20265;-89
2022/11/05 08:13:38;;;;;;;7.97;3.93;;;;;;;;;;5061069;28;20226;-86
2022/11/05 08:16:06;;;;;;;10.83;4.10;;;;;;;;;;5079737;28;20271;-84
2022/11/05 08:18:33;;;;;;;9.83;3.57;;;;;;;;;;5077421;28;20207;-84
2022/11/05 08:21:03;;;;;;;8.90;4.50;;;;;;;;;;5072843;28;20241;-84
2022/11/05 08:23:31;;;;;;;9.70;4.07;;;;;;;;;;5062234;28;20337;-83
2022/11/05 08:25:58;;;;;;;10.10;4.07;;;;;;;;;;5067969;28;20278;-83
2022/11/05 08:28:26;;;;;;;9.63;4.60;;;;;;;;;;5076150;28;20758;-83
2022/11/05 08:30:55;;;;;;;9.57;4.00;;;;;;;;;;5062052;28;20294;-83
2022/11/05 08:33:22;;;;;;;9.63;4.03;;;;;;;;;;5059870;28;20283;-83
2022/11/05 08:35:50;;;;;;;8.83;4.10;;;;;;;;;;5059137;28;20730;-83
2022/11/05 08:38:19;;;;;;;9.40;4.20;;;;;;;;;;5068378;28;20329;-84
2022/11/05 08:40:53;;;;;;;10.67;4.03;;;;;;;;;;5066684;28;20280;-84
2022/11/05 08:43:20;;;;;;;9.33;3.97;;;;;;;;;;5056950;28;20230;-84
2022/11/05 08:45:48;;;;;;;8.13;4.10;;;;;;;;;;5056320;28;20615;-83
2022/11/05 08:48:16;;;;;;;7.73;4.00;;;;;;;;;;5062521;28;20231;-83
2022/11/05 08:50:44;;;;;;;8.37;3.80;;;;;;;;;;5074387;28;20282;-83
2022/11/05 08:53:12;;;;;;;6.63;3.33;;;;;;;;;;5061574;28;20231;-83
2022/11/05 08:55:40;;;;;;;8.17;3.70;;;;;;;;;;5061579;28;20214;-83
2022/11/05 08:58:11;;;;;;;7.70;3.63;;;;;;;;;;5068854;28;20200;-83
2022/11/05 09:00:38;;;;;;;9.93;3.77;;;;;;;;;;5062027;28;20271;-83
2022/11/05 09:03:07;;;;;;;6.67;3.80;;;;;;;;;;5067244;28;20223;-84
2022/11/05 09:05:36;;;;;;;7.70;3.83;;;;;;;;;;5063016;28;20195;-83
2022/11/05 09:08:04;;;;;;;8.23;4.13;;;;;;;;;;5060585;28;20683;-83
2022/11/05 09:10:31;;;;;;;10.47;3.90;;;;;;;;;;5060733;28;20258;-83
2022/11/05 09:13:12;;;;;;;7.00;3.73;;;;;;;;;;5066042;28;20227;-83
2022/11/05 09:15:39;;;;;;;9.33;3.53;;;;;;;;;;5067760;28;20277;-84
2022/11/05 09:18:07;;;;;;;6.10;3.30;;;;;;;;;;5060285;28;20570;-83
2022/11/05 09:23:17;;;;;;;7.57;3.50;;;;;;;;;;5064888;28;20199;-84
2022/11/05 09:25:45;;;;;;;8.53;3.30;;;;;;;;;;5067735;28;20666;-83
2022/11/05 09:28:35;;;;;;;8.93;3.57;;;;;;;;;;5066536;28;20284;-84
2022/11/05 09:31:05;;;;;;;8.27;3.30;;;;;;;;;;5073281;28;20277;-83
2022/11/05 09:33:33;;;;;;;10.47;3.67;;;;;;;;;;5067285;28;20222;-83
2022/11/05 09:36:00;;;;;;;10.40;3.73;;;;;;;;;;5063298;28;20220;-83
2022/11/05 09:38:28;;;;;;;7.07;3.40;;;;;;;;;;5062417;28;20717;-83
2022/11/05 09:40:58;;;;;;;7.97;3.43;;;;;;;;;;5069834;28;20231;-84
2022/11/05 09:43:27;;;;;;;12.53;3.70;;;;;;;;;;5065544;28;20231;-88
2022/11/05 09:45:57;;;;;;;10.90;3.23;;;;;;;;;;5067511;28;20222;-87
2022/11/05 09:48:27;;;;;;;8.97;3.57;;;;;;;;;;5076848;28;20195;-88
2022/11/05 09:50:55;;;;;;;6.90;2.80;;;;;;;;;;5073249;28;20289;-87
2022/11/05 09:53:23;;;;;;;7.80;3.00;;;;;;;;;;5086462;28;20202;-88
2022/11/05 09:55:52;;;;;;;7.87;2.90;;;;;;;;;;5073843;28;20246;-88
2022/11/05 09:58:21;;;;;;;5.20;2.80;;;;;;;;;;5063283;28;20233;-91
2022/11/05 10:03:32;;;;;;;11.30;3.57;;;;;;;;;;5077308;28;20194;-90
2022/11/05 10:06:17;;;;;;;8.70;3.10;;;;;;;;;;5070305;28;20744;-90
2022/11/05 10:08:45;;;;;;;8.83;3.10;;;;;;;;;;5068264;28;20200;-84
2022/11/05 10:11:17;;;;;;;6.37;2.53;;;;;;;;;;5067893;28;20220;-81
2022/11/05 10:13:46;;;;;;;9.40;3.23;;;;;;;;;;5068880;28;20230;-82
2022/11/05 10:16:18;;;;;;;6.77;2.60;;;;;;;;;;5072425;28;20210;-81
2022/11/05 10:18:49;;;;;;;11.17;3.13;;;;;;;;;;5064969;28;20195;-81
2022/11/05 10:21:17;;;;;;;9.10;2.90;;;;;;;;;;5081383;28;20225;-81
2022/11/05 10:23:45;;;;;;;5.53;2.70;;;;;;;;;;5081070;28;20314;-81
2022/11/05 10:26:14;;;;;;;11.10;3.47;;;;;;;;;;5069594;28;20199;-82
2022/11/05 10:28:41;;;;;;;6.57;2.90;;;;;;;;;;5069481;28;20298;-81
2022/11/05 10:31:10;;;;;;;6.80;2.60;;;;;;;;;;5064023;28;20203;-81
2022/11/05 10:33:40;;;;;;;10.53;2.87;;;;;;;;;;5087404;28;20267;-81
2022/11/05 10:36:11;;;;;;;7.20;2.60;;;;;;;;;;5073604;28;20310;-81
2022/11/05 10:38:38;;;;;;;9.50;2.60;;;;;;;;;;5061658;28;20547;-82
2022/11/05 10:44:10;;;;;;;6.80;2.58;;;;;;;;;;5000984;28;20198;-88
2022/11/05 10:46:39;;;;;;;7.38;2.65;;;;;;;;;;4999952;28;20202;-88
2022/11/05 10:49:18;;;;;;;5.57;2.28;;;;;;;;;;4999582;28;20688;-88
2022/11/05 10:51:47;;;;;;;6.53;2.10;;;;;;;;;;5007521;28;20252;-87
2022/11/05 10:54:16;;;;;;;9.27;2.55;;;;;;;;;;5002638;28;20226;-87
2022/11/05 10:56:44;;;;;;;6.60;2.08;;;;;;;;;;5003032;28;20201;-87
2022/11/05 10:59:20;;;;;;;4.85;2.00;;;;;;;;;;5007467;28;20200;-87
2022/11/05 11:02:11;;;;;;;11.13;2.28;;;;;;;;;;5005418;28;20259;-87
2022/11/05 11:04:39;;;;;;;7.07;2.15;;;;;;;;;;5009486;28;20216;-86
2022/11/05 11:07:30;;;;;;;4.87;2.03;;;;;;;;;;5012616;28;20225;-87
2022/11/05 11:09:58;;;;;;;5.20;1.80;;;;;;;;;;5002858;28;20260;-87
2022/11/05 11:12:26;;;;;;;5.28;1.67;;;;;;;;;;5000645;28;20241;-87
2022/11/05 11:15:04;;;;;;;3.50;1.42;;;;;;;;;;4998540;28;20217;-86
2022/11/05 11:17:33;;;;;;;6.00;1.63;;;;;;;;;;4999966;28;20210;-89
2022/11/05 11:20:18;;;;;;;5.18;1.63;;;;;;;;;;5005804;28;20744;-87
2022/11/05 11:22:56;;;;;;;7.30;2.13;;;;;;;;;;5069323;28;20207;-88
2022/11/05 11:25:27;;;;;;;5.72;1.98;;;;;;;;;;5075436;28;20206;-89
2022/11/05 11:27:55;;;;;;;8.60;2.33;;;;;;;;;;5074319;28;20223;-87
2022/11/05 11:30:22;;;;;;;5.03;1.93;;;;;;;;;;5056628;28;20603;-86
2022/11/05 11:32:49;;;;;;;7.63;1.77;;;;;;;;;;5054050;28;20643;-86
2022/11/05 11:35:21;;;;;;;6.40;2.00;;;;;;;;;;5058432;28;20239;-86
2022/11/05 11:37:49;;;;;;;10.17;2.20;;;;;;;;;;5064799;28;20195;-86
2022/11/05 11:40:21;;;;;;;7.57;2.20;;;;;;;;;;5071362;28;20238;-86
2022/11/05 11:42:52;;;;;;;6.03;2.00;;;;;;;;;;5069838;28;20286;-86
2022/11/05 11:45:20;;;;;;;8.53;2.20;;;;;;;;;;5093527;28;20269;-86
2022/11/05 11:47:50;;;;;;;8.10;1.97;;;;;;;;;;5075828;28;20295;-86
2022/11/05 11:50:34;;;;;;;7.37;2.20;;;;;;;;;;5062406;28;20335;-87
2022/11/05 11:53:17;;;;;;;11.03;2.30;;;;;;;;;;5061807;28;20592;-86
2022/11/05 11:55:57;;;;;;;6.03;2.13;;;;;;;;;;5061432;28;20306;-87
2022/11/05 11:58:36;;;;;;;7.60;2.07;;;;;;;;;;5074420;28;20287;-86
2022/11/05 12:01:05;;;;;;;7.50;1.80;;;;;;;;;;5075104;28;20260;-84
2022/11/05 12:03:36;;;;;;;4.60;1.70;;;;;;;;;;5074774;28;20284;-86
2022/11/05 12:06:08;;;;;;;6.57;1.70;;;;;;;;;;5064725;28;20196;-86
2022/11/05 12:08:41;;;;;;;5.70;2.00;;;;;;;;;;5061960;28;20234;-86
2022/11/05 12:11:10;;;;;;;8.93;1.97;;;;;;;;;;5064255;28;20760;-86
2022/11/05 12:13:48;;;;;;;6.53;2.13;;;;;;;;;;5064641;28;20219;-86
2022/11/05 12:16:21;;;;;;;4.97;1.70;;;;;;;;;;5069810;28;20243;-90
2022/11/05 12:18:51;;;;;;;6.47;1.70;;;;;;;;;;5078312;28;20203;-86
2022/11/05 12:21:23;;;;;;;5.37;1.57;;;;;;;;;;5070991;28;20221;-89
2022/11/05 12:24:18;;;;;;;6.73;1.60;;;;;;;;;;5069591;28;20684;-88
2022/11/05 12:26:49;;;;;;;7.90;1.60;;;;;;;;;;5068724;28;20214;-89
2022/11/05 12:29:45;;;;;;;5.87;1.53;;;;;;;;;;5076397;28;20223;-88
2022/11/05 12:32:30;;;;;;;4.90;1.80;;;;;;;;;;5059310;28;20204;-88
2022/11/05 12:35:00;;;;;;;6.90;2.00;;;;;;;;;;5052204;28;20673;-87
2022/11/05 12:40:40;;;;;;;6.57;2.17;;;;;;;;;;4983834;28;20241;-86
2022/11/05 12:43:12;;;;;;;9.47;2.30;;;;;;;;;;4977543;28;20342;-87
2022/11/05 12:45:54;;;;;;;7.67;1.87;;;;;;;;;;4987895;28;20225;-87
2022/11/05 12:48:34;;;;;;;6.13;2.07;;;;;;;;;;4980514;28;20218;-87
2022/11/05 12:51:06;;;;;;;6.30;2.17;;;;;;;;;;4987609;28;20193;-86
2022/11/05 12:53:46;;;;;;;5.43;2.17;;;;;;;;;;4988933;28;20229;-85
2022/11/05 12:56:16;;;;;;;8.23;2.67;;;;;;;;;;4976246;28;20222;-85
2022/11/05 12:58:45;;;;;;;7.80;2.43;;;;;;;;;;4983183;28;20232;-87
2022/11/05 13:01:14;;;;;;;6.63;2.60;;;;;;;;;;4982535;28;20400;-86
2022/11/05 13:03:46;;;;;;;7.97;2.60;;;;;;;;;;4981601;28;20225;-88
2022/11/05 13:06:20;;;;;;;4.67;2.43;;;;;;;;;;4977545;28;20230;-88
2022/11/05 13:08:55;;;;;;;9.40;3.10;;;;;;;;;;4979173;28;20202;-87
2022/11/05 13:11:24;;;;;;;5.10;2.50;;;;;;;;;;5011096;28;20202;-88
2022/11/05 13:13:59;;;;;;;9.53;2.90;;;;;;;;;;5059832;28;20321;-86
2022/11/05 13:16:29;;;;;;;7.73;2.60;;;;;;;;;;5063784;28;20257;-91
2022/11/05 13:19:00;;;;;;;6.83;2.80;;;;;;;;;;5066386;28;20207;-85
2022/11/05 13:21:29;;;;;;;7.40;3.10;;;;;;;;;;5066570;28;20237;-85
2022/11/05 13:24:03;;;;;;;6.70;3.03;;;;;;;;;;5060466;28;20760;-86
2022/11/05 13:26:37;;;;;;;8.20;2.97;;;;;;;;;;5055658;28;20214;-85
2022/11/05 13:29:09;;;;;;;7.07;3.10;;;;;;;;;;5063430;28;20245;-84
2022/11/05 13:31:57;;;;;;;7.43;3.33;;;;;;;;;;5061061;28;20537;-86
2022/11/05 13:34:29;;;;;;;6.43;2.90;;;;;;;;;;5059799;28;20199;-86
2022/11/05 13:39:44;;;;;;;9.70;3.87;;;;;;;;;;5054512;28;20249;-79
2022/11/05 13:42:37;;;;;;;9.87;3.47;;;;;;;;;;5059074;28;20195;-79
2022/11/05 13:48:11;;;;;;;9.23;3.20;;;;;;;;;;5056705;28;20206;-84
2022/11/05 13:54:00;;;;;;;6.93;2.43;;;;;;;;;;5055870;28;20188;-84
2022/11/05 13:56:34;;;;;;;7.77;3.37;;;;;;;;;;5063361;28;20229;-84
2022/11/05 13:59:08;;;;;;;8.93;3.20;;;;;;;;;;5068905;28;20195;-84
2022/11/05 14:01:44;;;;;;;8.60;3.20;;;;;;;;;;5061606;28;20253;-84
2022/11/05 14:04:15;;;;;;;9.17;3.00;;;;;;;;;;5063914;28;20226;-84
2022/11/05 14:06:43;;;;;;;5.13;2.73;;;;;;;;;;5057294;28;20192;-84
2022/11/05 14:09:12;;;;;;;7.10;2.77;;;;;;;;;;5061157;28;20278;-83
2022/11/05 14:11:43;;;;;;;7.53;3.30;;;;;;;;;;5063269;28;20702;-83
2022/11/05 14:14:16;;;;;;;7.93;2.80;;;;;;;;;;5065180;28;20287;-83
2022/11/05 14:16:48;;;;;;;6.63;2.50;;;;;;;;;;5059402;28;20322;-82
2022/11/05 14:19:29;;;;;;;7.00;2.77;;;;;;;;;;5061219;28;20693;-83
2022/11/05 14:21:59;;;;;;;7.47;2.87;;;;;;;;;;5062814;28;20226;-82
2022/11/05 14:24:41;;;;;;;6.83;2.97;;;;;;;;;;5060634;28;20716;-83
2022/11/05 14:27:27;;;;;;;7.07;2.53;;;;;;;;;;5065132;28;20642;-83
2022/11/05 14:30:00;;;;;;;9.33;2.53;;;;;;;;;;5058224;28;20218;-83
2022/11/05 14:32:48;;;;;;;5.93;2.93;;;;;;;;;;5068671;28;20198;-83
2022/11/05 14:35:50;;;;;;;;;;;;;;;;;;;;;
2022/11/05 14:38:21;;;;;;;7.70;3.10;;;;;;;;;;5061237;28;20574;-82
2022/11/05 14:40:50;;;;;;;8.50;3.50;;;;;;;;;;5060398;28;20259;-83
2022/11/05 14:46:21;;;;;;;8.53;3.37;;;;;;;;;;5069785;28;20252;-84
2022/11/05 14:48:51;;;;;;;8.60;3.30;;;;;;;;;;5068211;28;20231;-83
2022/11/05 14:51:29;;;;;;;9.27;3.57;;;;;;;;;;5062493;28;20610;-83
2022/11/05 14:56:57;;;;;;;11.60;4.57;;;;;;;;;;5067852;28;20307;-83
2022/11/05 14:59:51;;;;;;;8.37;3.90;;;;;;;;;;5070129;28;20229;-84
2022/11/05 15:02:20;;;;;;;8.87;4.23;;;;;;;;;;5068366;28;20738;-83
2022/11/05 15:04:49;;;;;;;12.33;4.00;;;;;;;;;;5071769;28;20264;-84
2022/11/05 15:07:39;;;;;;;11.00;4.23;;;;;;;;;;5073679;28;20207;-85
2022/11/05 15:10:08;;;;;;;5.93;3.57;;;;;;;;;;5066251;28;20230;-84
2022/11/05 15:12:38;;;;;;;10.23;4.40;;;;;;;;;;5066893;28;20284;-84
2022/11/05 15:15:16;;;;;;;11.47;4.37;;;;;;;;;;5063343;28;20277;-84
2022/11/05 15:17:50;;;;;;;10.03;4.57;;;;;;;;;;5065364;28;20309;-85
2022/11/05 15:20:37;;;;;;;7.77;4.40;;;;;;;;;;5076051;28;20766;-86
2022/11/05 15:23:05;;;;;;;8.83;4.43;;;;;;;;;;5065096;28;20286;-84
2022/11/05 15:25:37;;;;;;;7.80;4.23;;;;;;;;;;5067306;28;20199;-85
2022/11/05 15:28:13;;;;;;;8.83;3.57;;;;;;;;;;5067966;28;20235;-85
2022/11/05 15:30:55;;;;;;;8.53;5.80;;;;;;;;;;5064121;28;20218;-84
2022/11/05 15:33:23;;;;;;;7.73;4.47;;;;;;;;;;5064641;28;20210;-85
2022/11/05 15:35:52;;;;;;;7.80;4.50;;;;;;;;;;5061889;28;20223;-85
2022/11/05 15:38:28;;;;;;;9.10;4.80;;;;;;;;;;5057082;28;20299;-84
2022/11/05 15:41:02;;;;;;;8.03;4.80;;;;;;;;;;5074625;28;20295;-85
2022/11/05 15:43:33;;;;;;;10.37;4.33;;;;;;;;;;5075935;28;20669;-84
2022/11/05 15:46:15;;;;;;;7.97;4.43;;;;;;;;;;5062954;28;20206;-85
2022/11/05 15:48:46;;;;;;;8.60;4.83;;;;;;;;;;5070628;28;20257;-84
2022/11/05 15:51:13;;;;;;;10.77;4.30;;;;;;;;;;5065955;28;20285;-85
2022/11/05 15:53:57;;;;;;;9.27;4.60;;;;;;;;;;5063514;28;20202;-85
2022/11/05 15:56:30;;;;;;;7.70;4.27;;;;;;;;;;5058686;28;20302;-84
2022/11/05 15:59:03;;;;;;;10.23;4.30;;;;;;;;;;5062182;28;20219;-84
2022/11/05 16:01:31;;;;;;;12.47;4.97;;;;;;;;;;5070234;28;20226;-84
2022/11/05 16:04:00;;;;;;;9.37;4.73;;;;;;;;;;5062298;28;20683;-85
2022/11/05 16:06:36;;;;;;;7.80;4.70;;;;;;;;;;5068821;28;20199;-86
2022/11/05 16:09:07;;;;;;;10.57;4.50;;;;;;;;;;5067048;28;20199;-85
2022/11/05 16:11:34;;;;;;;8.23;4.33;;;;;;;;;;5067935;28;20207;-85